Time;durP1;ratioP1;P1;durP2;ratioP2;P2;SDS_P1;SDS_P2;PMS_P1;PMS_P2;Temp;Humidity;BMP_temperature;BMP_pressure;BME280_temperature;BME280_humidity;BME280_pressure;Samples;Min_cycle;Max_cycle;Signal;HPM_P1;HPM_P2
2022/03/28 00:01:24;;;;;;;23.20;9.32;;;;;;;;;;5091714;28;20381;-42
2022/03/28 00:03:50;;;;;;;23.55;7.68;;;;;;;;;;5092190;28;20031;-42
2022/03/28 00:06:16;;;;;;;26.23;8.32;;;;;;;;;;5090714;28;20153;-41
2022/03/28 00:08:42;;;;;;;26.08;9.90;;;;;;;;;;5091849;28;20062;-42
2022/03/28 00:11:08;;;;;;;27.10;10.50;;;;;;;;;;5077649;28;20036;-42
2022/03/28 00:13:35;;;;;;;33.63;12.07;;;;;;;;;;5092561;28;20483;-48
2022/03/28 00:16:02;;;;;;;39.42;13.90;;;;;;;;;;5095711;28;20102;-47
2022/03/28 00:18:28;;;;;;;43.08;15.77;;;;;;;;;;5096684;28;20447;-48
2022/03/28 00:20:55;;;;;;;38.72;14.18;;;;;;;;;;5096833;28;20025;-47
2022/03/28 00:23:22;;;;;;;28.02;11.18;;;;;;;;;;5096720;28;20468;-49
2022/03/28 00:25:48;;;;;;;28.48;10.15;;;;;;;;;;5096408;28;20185;-49
2022/03/28 00:28:14;;;;;;;25.98;9.70;;;;;;;;;;5096644;28;20020;-53
2022/03/28 00:30:41;;;;;;;27.45;10.07;;;;;;;;;;5096822;28;20031;-46
2022/03/28 00:33:07;;;;;;;22.27;8.70;;;;;;;;;;5096484;28;20476;-46
2022/03/28 00:35:33;;;;;;;23.30;8.55;;;;;;;;;;5096463;28;20490;-48
2022/03/28 00:37:59;;;;;;;31.70;10.63;;;;;;;;;;5096482;28;20544;-50
2022/03/28 00:40:28;;;;;;;30.50;12.65;;;;;;;;;;5096533;28;20067;-45
2022/03/28 00:42:56;;;;;;;23.70;8.77;;;;;;;;;;5096420;28;20476;-46
2022/03/28 00:45:22;;;;;;;45.17;16.23;;;;;;;;;;5096447;28;20024;-46
2022/03/28 00:47:49;;;;;;;23.58;9.65;;;;;;;;;;5096296;28;20035;-45
2022/03/28 00:50:15;;;;;;;27.65;10.18;;;;;;;;;;5098148;28;20412;-44
2022/03/28 00:52:41;;;;;;;22.92;9.38;;;;;;;;;;5096114;28;20394;-46
2022/03/28 00:55:07;;;;;;;21.17;7.47;;;;;;;;;;5096141;28;20487;-47
2022/03/28 00:57:34;;;;;;;29.83;12.95;;;;;;;;;;5077697;28;20028;-50
2022/03/28 01:00:01;;;;;;;22.58;9.48;;;;;;;;;;5096010;28;20103;-51
2022/03/28 01:02:28;;;;;;;22.95;9.10;;;;;;;;;;5096133;28;20489;-52
2022/03/28 01:04:54;;;;;;;19.75;7.43;;;;;;;;;;5096011;28;20028;-46
2022/03/28 01:07:20;;;;;;;27.75;8.40;;;;;;;;;;5095866;28;20020;-45
2022/03/28 01:09:46;;;;;;;21.85;7.63;;;;;;;;;;5078824;28;20035;-44
2022/03/28 01:12:12;;;;;;;20.92;7.70;;;;;;;;;;5075265;28;20016;-49
2022/03/28 01:14:41;;;;;;;15.43;7.63;;;;;;;;;;5075381;28;20036;-52
2022/03/28 01:19:52;;;;;;;15.77;5.53;;;;;;;;;;5095650;28;20131;-47
2022/03/28 01:22:18;;;;;;;10.20;4.97;;;;;;;;;;5095450;28;20107;-45
2022/03/28 01:24:45;;;;;;;9.80;4.88;;;;;;;;;;5095062;28;20491;-47
2022/03/28 01:27:11;;;;;;;19.02;6.57;;;;;;;;;;5094055;28;20028;-50
2022/03/28 01:29:37;;;;;;;14.13;6.80;;;;;;;;;;5095442;28;20070;-47
2022/03/28 01:32:03;;;;;;;15.00;5.90;;;;;;;;;;5095206;28;20491;-46
2022/03/28 01:34:29;;;;;;;15.70;5.68;;;;;;;;;;5095413;28;20396;-44
2022/03/28 01:36:55;;;;;;;16.65;5.82;;;;;;;;;;5095290;28;20048;-46
2022/03/28 01:39:22;;;;;;;23.98;8.93;;;;;;;;;;5095190;28;20506;-44
2022/03/28 01:41:48;;;;;;;17.27;7.78;;;;;;;;;;5095142;28;20086;-48
2022/03/28 01:44:14;;;;;;;18.52;7.65;;;;;;;;;;5095101;28;20069;-46
2022/03/28 01:46:41;;;;;;;19.27;6.95;;;;;;;;;;5094948;28;20058;-46
2022/03/28 01:49:07;;;;;;;17.52;6.60;;;;;;;;;;5094958;28;20051;-46
2022/03/28 01:51:33;;;;;;;17.58;7.95;;;;;;;;;;5094927;28;20387;-52
2022/03/28 01:54:00;;;;;;;20.20;7.03;;;;;;;;;;5094770;28;20028;-46
2022/03/28 01:56:31;;;;;;;14.25;6.00;;;;;;;;;;5076216;28;20123;-46
2022/03/28 01:58:57;;;;;;;21.55;7.47;;;;;;;;;;5094844;28;20023;-52
2022/03/28 02:01:23;;;;;;;20.92;6.90;;;;;;;;;;5094755;28;20051;-44
2022/03/28 02:03:49;;;;;;;21.58;6.20;;;;;;;;;;5094811;28;20391;-47
2022/03/28 02:06:15;;;;;;;24.85;9.05;;;;;;;;;;5094696;28;20028;-47
2022/03/28 02:08:41;;;;;;;12.65;5.47;;;;;;;;;;5094800;28;20460;-45
2022/03/28 02:11:08;;;;;;;19.08;6.40;;;;;;;;;;5094652;28;20035;-45
2022/03/28 02:13:34;;;;;;;16.38;6.57;;;;;;;;;;5094543;28;20036;-52
2022/03/28 02:16:00;;;;;;;22.75;8.55;;;;;;;;;;5094685;28;20016;-48
2022/03/28 02:18:27;;;;;;;14.05;6.38;;;;;;;;;;5094677;28;20024;-46
2022/03/28 02:20:56;;;;;;;11.50;5.68;;;;;;;;;;5094351;28;20081;-46
2022/03/28 02:23:22;;;;;;;13.77;5.97;;;;;;;;;;5094368;28;20019;-46
2022/03/28 02:25:48;;;;;;;16.27;5.75;;;;;;;;;;5094237;28;20035;-44
2022/03/28 02:28:14;;;;;;;16.05;5.72;;;;;;;;;;5094037;28;20051;-44
2022/03/28 02:30:40;;;;;;;15.68;5.32;;;;;;;;;;5094212;28;20020;-44
2022/03/28 02:33:07;;;;;;;15.75;5.25;;;;;;;;;;5094305;28;20081;-44
2022/03/28 02:35:33;;;;;;;15.75;5.25;;;;;;;;;;5094180;28;20369;-50
2022/03/28 02:38:01;;;;;;;15.13;4.97;;;;;;;;;;5093745;28;20103;-45
2022/03/28 02:40:31;;;;;;;13.75;4.78;;;;;;;;;;5094247;28;20080;-47
2022/03/28 02:42:59;;;;;;;11.95;5.03;;;;;;;;;;5094047;28;20027;-50
2022/03/28 02:45:29;;;;;;;10.60;4.50;;;;;;;;;;5094046;28;20065;-45
2022/03/28 02:47:55;;;;;;;18.77;4.97;;;;;;;;;;5093855;28;20039;-46
2022/03/28 02:50:21;;;;;;;11.25;4.75;;;;;;;;;;5112084;28;20074;-46
2022/03/28 02:52:47;;;;;;;13.20;4.43;;;;;;;;;;5114360;28;20052;-46
2022/03/28 02:55:14;;;;;;;15.27;5.22;;;;;;;;;;5114156;28;20034;-45
2022/03/28 02:57:40;;;;;;;10.75;4.85;;;;;;;;;;5114059;28;20467;-46
2022/03/28 03:00:08;;;;;;;12.18;4.75;;;;;;;;;;5114216;28;20094;-46
2022/03/28 03:02:35;;;;;;;10.23;5.18;;;;;;;;;;5114125;28;20019;-47
2022/03/28 03:05:01;;;;;;;14.20;5.60;;;;;;;;;;5114162;28;20031;-46
2022/03/28 03:07:27;;;;;;;13.45;5.15;;;;;;;;;;5114014;28;20027;-47
2022/03/28 03:09:53;;;;;;;14.18;5.22;;;;;;;;;;5114091;28;20486;-44
2022/03/28 03:12:19;;;;;;;13.07;5.57;;;;;;;;;;5113866;28;20036;-44
2022/03/28 03:14:45;;;;;;;16.08;5.70;;;;;;;;;;5114049;28;20028;-47
2022/03/28 03:17:11;;;;;;;23.83;5.75;;;;;;;;;;5113865;28;20019;-44
2022/03/28 03:19:40;;;;;;;16.77;5.60;;;;;;;;;;5113831;28;20034;-44
2022/03/28 03:22:09;;;;;;;13.85;5.50;;;;;;;;;;5113709;28;20065;-44
2022/03/28 03:24:37;;;;;;;14.05;5.63;;;;;;;;;;5113628;28;20450;-45
2022/03/28 03:27:03;;;;;;;15.52;5.65;;;;;;;;;;5113669;28;20155;-45
2022/03/28 03:29:29;;;;;;;12.43;5.45;;;;;;;;;;5113958;28;20360;-46
2022/03/28 03:31:58;;;;;;;16.80;6.32;;;;;;;;;;5113806;28;20023;-50
2022/03/28 03:34:24;;;;;;;16.02;5.95;;;;;;;;;;5113745;28;20032;-47
2022/03/28 03:36:50;;;;;;;20.98;5.93;;;;;;;;;;5113827;28;20026;-47
2022/03/28 03:39:16;;;;;;;18.63;5.95;;;;;;;;;;5113655;28;20098;-45
2022/03/28 03:41:42;;;;;;;13.73;6.53;;;;;;;;;;5113718;28;20028;-45
2022/03/28 03:44:09;;;;;;;17.73;6.10;;;;;;;;;;5113631;28;20027;-52
2022/03/28 03:46:35;;;;;;;13.40;4.95;;;;;;;;;;5113495;28;20020;-46
2022/03/28 03:49:01;;;;;;;10.85;4.75;;;;;;;;;;5106451;28;20466;-44
2022/03/28 03:51:27;;;;;;;14.93;4.90;;;;;;;;;;5096856;28;20023;-45
2022/03/28 03:53:56;;;;;;;15.05;5.80;;;;;;;;;;5097114;28;20391;-48
2022/03/28 03:56:22;;;;;;;22.38;7.93;;;;;;;;;;5097161;28;20498;-46
2022/03/28 03:58:48;;;;;;;12.27;6.15;;;;;;;;;;5097353;28;20055;-45
2022/03/28 04:01:14;;;;;;;12.43;5.00;;;;;;;;;;5097389;28;20027;-44
2022/03/28 04:03:40;;;;;;;15.38;5.90;;;;;;;;;;5097203;28;20024;-43
2022/03/28 04:06:10;;;;;;;14.73;5.50;;;;;;;;;;5096979;28;20464;-44
2022/03/28 04:08:36;;;;;;;20.88;6.47;;;;;;;;;;5096958;28;20464;-42
2022/03/28 04:11:02;;;;;;;11.88;5.97;;;;;;;;;;5097126;28;20024;-44
2022/03/28 04:13:28;;;;;;;14.93;6.03;;;;;;;;;;5097059;28;20032;-43
2022/03/28 04:15:54;;;;;;;18.30;5.50;;;;;;;;;;5096957;28;20073;-45
2022/03/28 04:18:20;;;;;;;17.00;5.55;;;;;;;;;;5096803;28;20032;-44
2022/03/28 04:20:47;;;;;;;12.15;5.05;;;;;;;;;;5096743;28;20028;-46
2022/03/28 04:23:13;;;;;;;13.27;4.07;;;;;;;;;;5096605;28;20027;-43
2022/03/28 04:25:39;;;;;;;15.90;5.07;;;;;;;;;;5096737;28;20036;-44
2022/03/28 04:28:08;;;;;;;10.85;4.18;;;;;;;;;;5096777;28;20024;-43
2022/03/28 04:30:35;;;;;;;12.48;5.07;;;;;;;;;;5096715;28;20021;-42
2022/03/28 04:33:02;;;;;;;14.85;4.95;;;;;;;;;;5096633;28;20549;-43
2022/03/28 04:35:28;;;;;;;12.20;4.97;;;;;;;;;;5096477;28;20032;-43
2022/03/28 04:37:59;;;;;;;18.58;6.43;;;;;;;;;;5096423;28;20091;-44
2022/03/28 04:40:25;;;;;;;11.55;4.82;;;;;;;;;;5096258;28;20027;-49
2022/03/28 04:42:51;;;;;;;13.98;4.85;;;;;;;;;;5096114;28;20020;-43
2022/03/28 04:45:17;;;;;;;16.52;5.90;;;;;;;;;;5096187;28;20073;-44
2022/03/28 04:47:44;;;;;;;11.20;4.72;;;;;;;;;;5096415;28;20036;-44
2022/03/28 04:50:10;;;;;;;9.73;4.15;;;;;;;;;;5112521;28;20055;-52
2022/03/28 04:52:36;;;;;;;17.55;7.22;;;;;;;;;;5116447;28;20028;-43
2022/03/28 04:55:03;;;;;;;14.75;5.95;;;;;;;;;;5116268;28;20038;-43
2022/03/28 04:57:29;;;;;;;23.17;7.88;;;;;;;;;;5116480;28;20402;-44
2022/03/28 04:59:55;;;;;;;18.15;8.13;;;;;;;;;;5116454;28;20421;-43
2022/03/28 05:02:21;;;;;;;23.58;9.00;;;;;;;;;;5114878;28;20023;-43
2022/03/28 05:04:47;;;;;;;17.67;7.30;;;;;;;;;;5113898;28;20122;-50
2022/03/28 05:07:14;;;;;;;22.63;7.50;;;;;;;;;;5113760;28;20069;-43
2022/03/28 05:09:40;;;;;;;18.13;7.75;;;;;;;;;;5114342;28;20023;-43
2022/03/28 05:12:06;;;;;;;19.02;7.53;;;;;;;;;;5116287;28;20019;-43
2022/03/28 05:14:33;;;;;;;24.52;9.57;;;;;;;;;;5115948;28;20036;-51
2022/03/28 05:16:59;;;;;;;20.15;6.97;;;;;;;;;;5115948;28;20028;-44
2022/03/28 05:19:25;;;;;;;35.83;13.32;;;;;;;;;;5116008;28;20023;-43
2022/03/28 05:21:51;;;;;;;30.13;11.13;;;;;;;;;;5115826;28;20383;-47
2022/03/28 05:24:17;;;;;;;24.63;9.63;;;;;;;;;;5115705;28;20027;-44
2022/03/28 05:26:43;;;;;;;18.55;9.15;;;;;;;;;;5097114;28;20038;-43
2022/03/28 05:29:09;;;;;;;27.95;8.30;;;;;;;;;;5115483;28;20035;-43
2022/03/28 05:31:35;;;;;;;20.13;7.82;;;;;;;;;;5115936;28;20371;-45
2022/03/28 05:34:02;;;;;;;27.10;11.70;;;;;;;;;;5115635;28;20043;-43
2022/03/28 05:36:28;;;;;;;33.03;15.18;;;;;;;;;;5115918;28;20022;-45
2022/03/28 05:38:54;;;;;;;45.75;22.20;;;;;;;;;;5115439;28;20015;-43
2022/03/28 05:41:20;;;;;;;41.10;17.02;;;;;;;;;;5096841;28;20384;-44
2022/03/28 05:43:46;;;;;;;32.88;13.57;;;;;;;;;;5115485;28;20063;-45
2022/03/28 05:46:12;;;;;;;25.67;11.98;;;;;;;;;;5115490;28;20027;-43
2022/03/28 05:48:39;;;;;;;26.85;11.45;;;;;;;;;;5115283;28;20043;-44
2022/03/28 05:51:05;;;;;;;27.95;11.35;;;;;;;;;;5115643;28;20030;-43
2022/03/28 05:53:31;;;;;;;38.30;13.48;;;;;;;;;;5115325;28;20364;-44
2022/03/28 05:55:57;;;;;;;44.63;15.35;;;;;;;;;;5115300;28;20020;-45
2022/03/28 05:58:23;;;;;;;31.40;13.00;;;;;;;;;;5115445;28;20023;-49
2022/03/28 06:00:49;;;;;;;32.05;12.57;;;;;;;;;;5115244;28;20020;-45
2022/03/28 06:03:15;;;;;;;34.70;11.70;;;;;;;;;;5115496;28;20020;-45
2022/03/28 06:05:41;;;;;;;28.02;11.93;;;;;;;;;;5115270;28;20059;-52
2022/03/28 06:08:08;;;;;;;22.45;10.20;;;;;;;;;;5115208;28;20051;-45
2022/03/28 06:10:34;;;;;;;23.73;10.20;;;;;;;;;;5114965;28;20031;-45
2022/03/28 06:13:00;;;;;;;24.05;10.05;;;;;;;;;;5114195;28;20127;-49
2022/03/28 06:15:26;;;;;;;24.40;8.88;;;;;;;;;;5114913;28;20066;-45
2022/03/28 06:17:53;;;;;;;21.30;8.93;;;;;;;;;;5114903;28;20030;-45
2022/03/28 06:20:20;;;;;;;16.90;6.85;;;;;;;;;;5114888;28;20027;-45
2022/03/28 06:22:46;;;;;;;19.48;7.50;;;;;;;;;;5114831;28;20031;-45
2022/03/28 06:25:12;;;;;;;17.90;7.20;;;;;;;;;;5114642;28;20456;-50
2022/03/28 06:27:41;;;;;;;14.88;6.38;;;;;;;;;;5114642;28;20079;-45
2022/03/28 06:30:11;;;;;;;13.10;6.60;;;;;;;;;;5115304;28;20042;-49
2022/03/28 06:32:38;;;;;;;17.35;6.30;;;;;;;;;;5114941;28;20030;-51
2022/03/28 06:35:05;;;;;;;16.70;6.97;;;;;;;;;;5114643;28;20032;-51
2022/03/28 06:37:33;;;;;;;13.05;5.93;;;;;;;;;;5114566;28;20039;-45
2022/03/28 06:40:00;;;;;;;12.55;7.07;;;;;;;;;;5114726;28;20030;-53
2022/03/28 06:42:26;;;;;;;17.67;6.10;;;;;;;;;;5114355;28;20023;-46
2022/03/28 06:44:52;;;;;;;17.95;5.72;;;;;;;;;;5114612;28;20070;-47
2022/03/28 06:47:18;;;;;;;19.00;6.70;;;;;;;;;;5114214;28;20110;-47
2022/03/28 06:49:44;;;;;;;29.05;12.98;;;;;;;;;;5114106;28;20044;-47
2022/03/28 06:52:13;;;;;;;21.55;9.60;;;;;;;;;;5114365;28;20024;-49
2022/03/28 06:54:41;;;;;;;19.75;8.68;;;;;;;;;;5114234;28;20032;-45
2022/03/28 06:57:07;;;;;;;35.50;13.85;;;;;;;;;;5114267;28;20499;-48
2022/03/28 06:59:33;;;;;;;13.63;5.40;;;;;;;;;;5114216;28;20028;-55
2022/03/28 07:01:59;;;;;;;17.77;7.32;;;;;;;;;;5114085;28;20026;-44
2022/03/28 07:04:28;;;;;;;19.52;7.63;;;;;;;;;;5114106;28;20019;-55
2022/03/28 07:06:54;;;;;;;11.77;5.03;;;;;;;;;;5114264;28;20024;-47
2022/03/28 07:09:20;;;;;;;10.20;4.97;;;;;;;;;;5113903;28;20023;-56
2022/03/28 07:11:47;;;;;;;14.32;4.40;;;;;;;;;;5113910;28;20471;-48
2022/03/28 07:14:13;;;;;;;8.85;3.35;;;;;;;;;;5113733;28;20077;-43
2022/03/28 07:16:39;;;;;;;7.65;3.92;;;;;;;;;;5113770;28;20028;-43
2022/03/28 07:19:05;;;;;;;9.25;4.70;;;;;;;;;;5113819;28;20031;-46
2022/03/28 07:21:31;;;;;;;9.60;3.60;;;;;;;;;;5114123;28;20027;-45
2022/03/28 07:23:57;;;;;;;10.07;4.97;;;;;;;;;;5113555;28;20172;-48
2022/03/28 07:26:23;;;;;;;12.75;6.28;;;;;;;;;;5113929;28;20024;-51
2022/03/28 07:28:50;;;;;;;13.73;5.03;;;;;;;;;;5113729;28;20031;-45
2022/03/28 07:31:17;;;;;;;8.20;4.13;;;;;;;;;;5113654;28;20024;-44
2022/03/28 07:33:44;;;;;;;22.08;9.57;;;;;;;;;;5113813;28;20039;-45
2022/03/28 07:36:10;;;;;;;12.88;6.07;;;;;;;;;;5113671;28;20026;-49
2022/03/28 07:38:37;;;;;;;21.15;9.38;;;;;;;;;;5113559;28;20027;-47
2022/03/28 07:41:06;;;;;;;13.57;4.57;;;;;;;;;;5113664;28;20024;-44
2022/03/28 07:43:32;;;;;;;8.65;3.45;;;;;;;;;;5113688;28;20015;-53
2022/03/28 07:45:59;;;;;;;8.23;3.30;;;;;;;;;;5113551;28;20020;-46
2022/03/28 07:48:27;;;;;;;6.03;3.45;;;;;;;;;;5113118;28;20035;-44
2022/03/28 07:50:53;;;;;;;9.68;2.67;;;;;;;;;;5113319;28;20028;-47
2022/03/28 07:53:19;;;;;;;5.97;2.22;;;;;;;;;;5094654;28;20043;-44
2022/03/28 07:55:45;;;;;;;6.53;2.45;;;;;;;;;;5113425;28;20123;-47
2022/03/28 07:58:14;;;;;;;6.18;2.75;;;;;;;;;;5113542;28;20425;-47
2022/03/28 08:00:40;;;;;;;5.60;2.30;;;;;;;;;;5113406;28;20077;-45
2022/03/28 08:03:06;;;;;;;7.13;3.35;;;;;;;;;;5095242;28;20022;-46
2022/03/28 08:05:32;;;;;;;9.02;3.38;;;;;;;;;;5113569;28;20494;-47
2022/03/28 08:07:58;;;;;;;11.98;3.55;;;;;;;;;;5113331;28;20106;-47
2022/03/28 08:10:25;;;;;;;8.32;2.60;;;;;;;;;;5113755;28;20051;-46
2022/03/28 08:12:52;;;;;;;4.30;2.30;;;;;;;;;;5113168;28;20058;-46
2022/03/28 08:15:22;;;;;;;4.50;2.92;;;;;;;;;;5113172;28;20032;-45
2022/03/28 08:17:48;;;;;;;6.60;2.85;;;;;;;;;;5113086;28;20034;-47
2022/03/28 08:20:14;;;;;;;9.18;2.80;;;;;;;;;;5113153;28;20050;-46
2022/03/28 08:22:44;;;;;;;3.85;1.90;;;;;;;;;;5113247;28;20020;-47
2022/03/28 08:25:10;;;;;;;7.88;3.15;;;;;;;;;;5113055;28;20028;-46
2022/03/28 08:27:36;;;;;;;3.80;1.73;;;;;;;;;;5113122;28;20031;-48
2022/03/28 08:30:02;;;;;;;4.13;1.83;;;;;;;;;;5113049;28;20023;-45
2022/03/28 08:32:29;;;;;;;3.83;1.70;;;;;;;;;;5113232;28;20065;-45
2022/03/28 08:34:55;;;;;;;4.85;1.63;;;;;;;;;;5112972;28;20048;-46
2022/03/28 08:37:21;;;;;;;3.00;1.83;;;;;;;;;;5115986;28;20051;-45
2022/03/28 08:39:54;;;;;;;4.65;1.70;;;;;;;;;;5116680;28;20429;-46
2022/03/28 08:42:20;;;;;;;4.57;2.65;;;;;;;;;;5116923;28;20161;-44
2022/03/28 08:44:47;;;;;;;7.60;2.38;;;;;;;;;;5116736;28;20028;-56
2022/03/28 08:47:17;;;;;;;8.15;3.50;;;;;;;;;;5116488;28;20047;-45
2022/03/28 08:49:43;;;;;;;9.13;4.15;;;;;;;;;;5116594;28;20048;-54
2022/03/28 08:52:09;;;;;;;4.60;2.58;;;;;;;;;;5116648;28;20536;-52
2022/03/28 08:54:35;;;;;;;7.25;2.80;;;;;;;;;;5116618;28;20070;-45
2022/03/28 08:57:02;;;;;;;5.47;3.20;;;;;;;;;;5116495;28;20016;-46
2022/03/28 08:59:31;;;;;;;7.60;3.20;;;;;;;;;;5116454;28;20096;-44
2022/03/28 09:01:57;;;;;;;6.03;2.53;;;;;;;;;;5116579;28;20375;-46
2022/03/28 09:04:24;;;;;;;6.57;2.72;;;;;;;;;;5116306;28;20072;-47
2022/03/28 09:06:50;;;;;;;6.00;3.83;;;;;;;;;;5116337;28;20028;-44
2022/03/28 09:09:18;;;;;;;7.32;2.58;;;;;;;;;;5116234;28;20055;-44
2022/03/28 09:12:08;;;;;;;3.83;2.50;;;;;;;;;;5097488;28;20388;-47
2022/03/28 09:14:40;;;;;;;5.13;2.20;;;;;;;;;;5033471;28;20497;-51
2022/03/28 09:17:11;;;;;;;6.53;3.10;;;;;;;;;;5033376;28;20042;-51
2022/03/28 09:20:12;;;;;;;6.10;1.67;;;;;;;;;;5033653;28;20576;-45
2022/03/28 09:22:41;;;;;;;4.70;2.22;;;;;;;;;;4974807;28;20026;-45
2022/03/28 09:25:09;;;;;;;4.88;1.90;;;;;;;;;;4974693;28;20035;-55
2022/03/28 09:27:37;;;;;;;5.25;3.17;;;;;;;;;;4974655;28;20147;-48
2022/03/28 09:30:05;;;;;;;6.45;3.70;;;;;;;;;;4974252;28;20356;-50
2022/03/28 09:32:33;;;;;;;3.97;2.50;;;;;;;;;;4974371;28;20117;-51
2022/03/28 09:35:08;;;;;;;7.75;2.10;;;;;;;;;;4974681;28;20062;-47
2022/03/28 09:38:08;;;;;;;4.13;2.10;;;;;;;;;;4974286;28;20035;-54
2022/03/28 09:40:34;;;;;;;6.88;2.83;;;;;;;;;;4954842;29;20543;-45
2022/03/28 09:43:01;;;;;;;7.75;3.53;;;;;;;;;;4955128;29;20648;-45
2022/03/28 09:45:30;;;;;;;7.53;3.03;;;;;;;;;;4954812;29;20150;-46
2022/03/28 09:47:56;;;;;;;5.03;2.78;;;;;;;;;;4953784;28;20535;-45
2022/03/28 09:50:48;;;;;;;7.43;4.22;;;;;;;;;;4954682;28;20054;-46
2022/03/28 09:53:31;;;;;;;4.05;2.50;;;;;;;;;;4992308;28;20041;-46
2022/03/28 09:56:02;;;;;;;4.75;2.63;;;;;;;;;;5007639;28;20048;-45
2022/03/28 09:58:48;;;;;;;9.25;4.70;;;;;;;;;;5052598;28;20133;-49
2022/03/28 10:01:28;;;;;;;4.88;2.88;;;;;;;;;;5052706;28;20029;-45
2022/03/28 10:03:55;;;;;;;5.80;2.97;;;;;;;;;;5052459;28;20167;-48
2022/03/28 10:06:22;;;;;;;14.98;6.00;;;;;;;;;;5052719;28;20543;-52
2022/03/28 10:08:48;;;;;;;8.75;4.30;;;;;;;;;;5052428;28;20040;-46
2022/03/28 10:11:17;;;;;;;8.90;5.55;;;;;;;;;;5052369;28;20087;-48
2022/03/28 10:13:46;;;;;;;6.32;4.30;;;;;;;;;;5052169;28;20123;-52
2022/03/28 10:16:12;;;;;;;6.88;3.63;;;;;;;;;;5084801;28;20044;-47
2022/03/28 10:18:39;;;;;;;21.65;12.05;;;;;;;;;;5114950;28;20479;-47
2022/03/28 10:21:07;;;;;;;13.82;8.35;;;;;;;;;;5114912;28;20042;-48
2022/03/28 10:23:37;;;;;;;48.92;28.02;;;;;;;;;;5096161;28;20450;-46
2022/03/28 10:26:05;;;;;;;14.73;7.55;;;;;;;;;;5114790;28;20027;-50
2022/03/28 10:28:31;;;;;;;24.30;12.50;;;;;;;;;;5114520;28;20420;-52
2022/03/28 10:31:12;;;;;;;13.63;8.75;;;;;;;;;;5114607;28;20535;-52
2022/03/28 10:33:46;;;;;;;18.45;9.13;;;;;;;;;;5114512;28;20027;-50
2022/03/28 10:36:24;;;;;;;19.48;7.82;;;;;;;;;;5114566;28;20059;-48
2022/03/28 10:38:51;;;;;;;49.88;24.63;;;;;;;;;;5114610;28;20437;-48
2022/03/28 10:41:20;;;;;;;28.23;16.80;;;;;;;;;;5114466;28;20032;-49
2022/03/28 10:43:47;;;;;;;18.50;10.35;;;;;;;;;;5114259;28;20031;-49
2022/03/28 10:46:13;;;;;;;22.88;12.32;;;;;;;;;;5114220;28;20020;-51
2022/03/28 10:48:41;;;;;;;14.82;8.88;;;;;;;;;;5114022;28;20051;-51
2022/03/28 10:51:08;;;;;;;34.78;19.27;;;;;;;;;;5114429;28;20024;-50
2022/03/28 10:53:46;;;;;;;19.33;9.75;;;;;;;;;;5114285;28;20020;-52
2022/03/28 10:56:20;;;;;;;20.52;11.43;;;;;;;;;;5114063;28;20522;-54
2022/03/28 10:58:51;;;;;;;46.45;24.30;;;;;;;;;;5113755;28;20036;-53
2022/03/28 11:01:19;;;;;;;37.20;21.02;;;;;;;;;;5114136;28;20463;-51
2022/03/28 11:03:45;;;;;;;23.98;13.02;;;;;;;;;;5114163;28;20036;-51
2022/03/28 11:06:12;;;;;;;47.88;25.48;;;;;;;;;;5114052;28;20099;-53
2022/03/28 11:08:38;;;;;;;58.13;32.50;;;;;;;;;;5114093;28;20484;-52
2022/03/28 11:11:19;;;;;;;15.60;7.22;;;;;;;;;;5113930;28;20026;-52
2022/03/28 11:14:00;;;;;;;9.15;4.60;;;;;;;;;;5113827;28;20111;-54
2022/03/28 11:16:45;;;;;;;15.55;7.70;;;;;;;;;;5113967;28;20030;-53
2022/03/28 11:19:20;;;;;;;9.05;5.07;;;;;;;;;;5113768;28;20505;-53
2022/03/28 11:22:04;;;;;;;8.27;4.68;;;;;;;;;;5114531;28;20027;-51
2022/03/28 11:25:00;;;;;;;34.80;18.60;;;;;;;;;;5113718;28;20106;-48
2022/03/28 11:27:30;;;;;;;12.93;6.90;;;;;;;;;;5011545;28;20101;-50
2022/03/28 11:30:01;;;;;;;11.48;6.88;;;;;;;;;;5011445;28;20037;-47
2022/03/28 11:32:29;;;;;;;27.50;17.15;;;;;;;;;;5011864;28;20184;-49
2022/03/28 11:34:56;;;;;;;6.30;4.22;;;;;;;;;;5011527;28;20122;-48
2022/03/28 11:37:25;;;;;;;8.07;4.07;;;;;;;;;;5011631;28;20034;-54
2022/03/28 11:39:56;;;;;;;5.15;3.15;;;;;;;;;;5011553;28;20113;-59
2022/03/28 11:42:28;;;;;;;17.35;8.93;;;;;;;;;;5011320;28;20030;-55
2022/03/28 11:44:55;;;;;;;9.57;5.45;;;;;;;;;;4995031;28;20379;-49
2022/03/28 11:47:22;;;;;;;4.95;2.85;;;;;;;;;;5011305;28;20113;-48
2022/03/28 11:49:53;;;;;;;6.38;2.60;;;;;;;;;;5011186;28;20054;-47
2022/03/28 11:52:19;;;;;;;11.27;2.90;;;;;;;;;;5011273;28;20058;-46
2022/03/28 11:54:46;;;;;;;5.43;2.40;;;;;;;;;;5011083;28;20038;-50
2022/03/28 12:00:11;;;;;;;10.98;4.65;;;;;;;;;;4989502;28;20040;-57
2022/03/28 12:02:46;;;;;;;5.22;3.05;;;;;;;;;;4987646;28;20475;-49
2022/03/28 12:05:12;;;;;;;6.50;3.10;;;;;;;;;;5085813;28;20051;-48
2022/03/28 12:07:38;;;;;;;5.93;3.17;;;;;;;;;;5091214;28;20035;-57
2022/03/28 12:10:05;;;;;;;6.68;2.25;;;;;;;;;;5091369;28;20472;-58
2022/03/28 12:12:31;;;;;;;6.18;3.55;;;;;;;;;;5094950;28;20394;-52
2022/03/28 12:14:57;;;;;;;6.53;4.05;;;;;;;;;;5095135;28;20541;-47
2022/03/28 12:17:27;;;;;;;4.03;2.08;;;;;;;;;;5095258;28;20104;-56
2022/03/28 12:20:01;;;;;;;5.57;2.28;;;;;;;;;;5095286;28;20028;-48
2022/03/28 12:22:27;;;;;;;6.20;3.35;;;;;;;;;;5095261;28;20012;-48
2022/03/28 12:24:53;;;;;;;7.10;3.38;;;;;;;;;;5095083;28;20020;-46
2022/03/28 12:27:20;;;;;;;3.65;2.30;;;;;;;;;;5095474;28;20031;-52
2022/03/28 12:29:46;;;;;;;6.15;2.70;;;;;;;;;;5095572;28;20028;-48
2022/03/28 12:32:20;;;;;;;6.95;2.70;;;;;;;;;;5094867;28;20492;-52
2022/03/28 12:34:46;;;;;;;4.40;2.60;;;;;;;;;;5095167;28;20036;-46
2022/03/28 12:37:16;;;;;;;4.93;2.42;;;;;;;;;;5094317;28;20031;-45
2022/03/28 12:39:43;;;;;;;6.65;2.22;;;;;;;;;;5094296;28;20016;-56
2022/03/28 12:42:10;;;;;;;5.10;2.25;;;;;;;;;;5093812;28;20052;-53
2022/03/28 12:44:38;;;;;;;5.72;2.50;;;;;;;;;;5094227;28;20058;-52
2022/03/28 12:47:05;;;;;;;4.38;2.40;;;;;;;;;;5094218;28;20100;-45
2022/03/28 12:49:40;;;;;;;4.97;3.03;;;;;;;;;;5093943;28;20052;-46
2022/03/28 12:52:09;;;;;;;7.88;2.75;;;;;;;;;;5094399;28;20061;-52
2022/03/28 12:54:36;;;;;;;3.17;2.13;;;;;;;;;;5094404;28;20051;-48
2022/03/28 12:57:02;;;;;;;4.20;2.38;;;;;;;;;;5094479;28;20023;-50
2022/03/28 12:59:28;;;;;;;4.38;2.10;;;;;;;;;;5094191;28;20166;-44
2022/03/28 13:02:05;;;;;;;4.30;2.15;;;;;;;;;;5094176;28;20055;-44
2022/03/28 13:04:41;;;;;;;4.03;2.33;;;;;;;;;;5094319;28;20028;-46
2022/03/28 13:07:07;;;;;;;4.30;2.40;;;;;;;;;;5094272;28;20016;-46
2022/03/28 13:09:33;;;;;;;3.55;2.17;;;;;;;;;;5094399;28;20020;-50
2022/03/28 13:12:09;;;;;;;5.25;2.58;;;;;;;;;;5075857;28;20075;-45
2022/03/28 13:14:38;;;;;;;4.88;2.83;;;;;;;;;;5093835;28;20028;-54
2022/03/28 13:17:04;;;;;;;5.15;2.50;;;;;;;;;;5094748;28;20060;-52
2022/03/28 13:19:30;;;;;;;5.50;2.40;;;;;;;;;;5089146;28;20036;-59
2022/03/28 13:21:58;;;;;;;2.20;2.00;;;;;;;;;;5071030;28;20543;-53
2022/03/28 13:24:28;;;;;;;3.40;1.92;;;;;;;;;;5070628;28;20146;-50
2022/03/28 13:28:01;;;;;;;4.10;2.10;;;;;;;;;;5070582;28;20024;-57
2022/03/28 13:29:43;;;;;;;4.53;1.92;;;;;;;;;;5070297;28;20434;-58
2022/03/28 13:32:09;;;;;;;5.30;1.90;;;;;;;;;;5071071;28;20497;-46
2022/03/28 13:34:35;;;;;;;3.20;2.13;;;;;;;;;;5070706;28;21076;-55
2022/03/28 13:37:05;;;;;;;3.25;2.10;;;;;;;;;;5071273;28;20058;-49
2022/03/28 13:39:33;;;;;;;2.63;1.95;;;;;;;;;;5071144;28;20078;-56
2022/03/28 13:42:01;;;;;;;3.03;2.20;;;;;;;;;;5070571;28;20032;-52
2022/03/28 13:44:27;;;;;;;4.22;2.10;;;;;;;;;;5069516;28;20053;-58
2022/03/28 13:46:53;;;;;;;2.90;2.03;;;;;;;;;;5069895;28;20040;-53
2022/03/28 13:49:26;;;;;;;3.70;2.00;;;;;;;;;;5077772;28;20119;-50
2022/03/28 13:51:52;;;;;;;3.05;2.20;;;;;;;;;;5087674;28;20454;-52
2022/03/28 13:54:18;;;;;;;3.55;2.00;;;;;;;;;;5087050;27;20219;-45
2022/03/28 13:56:44;;;;;;;5.10;2.20;;;;;;;;;;5088175;27;20044;-52
2022/03/28 13:59:13;;;;;;;4.00;2.28;;;;;;;;;;5084146;27;20053;-47
2022/03/28 14:01:40;;;;;;;4.32;2.30;;;;;;;;;;5086202;27;20550;-56
2022/03/28 14:04:09;;;;;;;4.43;2.10;;;;;;;;;;5065693;28;20333;-55
2022/03/28 14:06:35;;;;;;;3.25;2.15;;;;;;;;;;5087103;27;20031;-48
2022/03/28 14:09:01;;;;;;;2.58;1.95;;;;;;;;;;5088956;27;20015;-54
2022/03/28 14:11:27;;;;;;;2.78;1.98;;;;;;;;;;5078125;28;20596;-46
2022/03/28 14:13:54;;;;;;;4.80;2.53;;;;;;;;;;5086495;27;20432;-55
2022/03/28 14:16:20;;;;;;;5.55;2.30;;;;;;;;;;5084251;27;20073;-56
2022/03/28 14:18:47;;;;;;;7.35;2.50;;;;;;;;;;5085574;27;20051;-53
2022/03/28 14:21:15;;;;;;;5.53;2.38;;;;;;;;;;5085213;27;20429;-55
2022/03/28 14:23:42;;;;;;;3.05;1.85;;;;;;;;;;5087393;27;20031;-55
2022/03/28 14:26:08;;;;;;;5.32;2.00;;;;;;;;;;5084375;27;20119;-49
2022/03/28 14:28:34;;;;;;;3.90;2.17;;;;;;;;;;5085308;27;20071;-49
2022/03/28 14:31:01;;;;;;;2.33;1.80;;;;;;;;;;5087353;27;20046;-46
2022/03/28 14:33:29;;;;;;;5.47;2.35;;;;;;;;;;5085615;27;20446;-51
2022/03/28 14:35:57;;;;;;;2.17;1.75;;;;;;;;;;5086240;27;20067;-46
2022/03/28 14:38:27;;;;;;;4.32;2.20;;;;;;;;;;5085247;27;20388;-49
2022/03/28 14:40:53;;;;;;;5.47;2.95;;;;;;;;;;5085500;27;20392;-48
2022/03/28 14:43:21;;;;;;;9.07;3.63;;;;;;;;;;5085551;27;20074;-46